This is the latest recevied weather packets stored in our database for station/object IW1AXR-3. If no packets are shown the sender has not sent any weather packets the latest 10 day(s).
| Time | Temp. | Humidity | Pressure | Rain* | Wind** | Luminosity | Snow |
|---|---|---|---|---|---|---|---|
| 1777346846 | 13.33° C | 83% | 1013.2 hPa | - | - | - | - |
| 1777342605 | 13.33° C | 83% | 1013.4 hPa | - | - | - | - |
| 1777342001 | 12.22° C | 88% | 1013.4 hPa | - | - | - | - |
| 1777340188 | 12.22° C | 84% | 1013.5 hPa | - | - | - | - |
| 1777337771 | 13.33° C | 80% | 1013.7 hPa | - | - | - | - |
| 1777337167 | 13.33° C | 80% | 1013.8 hPa | - | - | - | - |
| 1777336562 | 13.89° C | 81% | 1013.9 hPa | - | - | - | - |
| 1777335957 | 13.33° C | 82% | 1014 hPa | - | - | - | - |
| 1777334749 | 13.33° C | 84% | 1014.2 hPa | - | - | - | - |
| 1777334144 | 13.33° C | 81% | 1014.2 hPa | - | - | - | - |
| 1777331723 | 14.44° C | 76% | 1014.3 hPa | - | - | - | - |
| 1777331118 | 14.44° C | 75% | 1014.3 hPa | - | - | - | - |
| 1777329910 | 14.44° C | 76% | 1014.3 hPa | - | - | - | - |
| 1777328701 | 15° C | 74% | 1014.3 hPa | - | - | - | - |
| 1777328096 | 14.44° C | 75% | 1014.3 hPa | - | - | - | - |
| 1777327490 | 14.44° C | 76% | 1014.3 hPa | - | - | - | - |
| 1777326885 | 14.44° C | 75% | 1014.3 hPa | - | - | - | - |
| 1777326283 | 14.44° C | 74% | 1014.3 hPa | - | - | - | - |
| 1777325071 | 15° C | 74% | 1014.4 hPa | - | - | - | - |
| 1777322651 | 15.56° C | 72% | 1014.4 hPa | - | - | - | - |
| 1777322046 | 15.56° C | 73% | 1014.5 hPa | - | - | - | - |
| 1777320836 | 15.56° C | 73% | 1014.6 hPa | - | - | - | - |
| 1777317954 | 15.56° C | 79% | 1014.6 hPa | - | - | - | - |
| 1777317348 | 15.56° C | 76% | 1014.5 hPa | - | - | - | - |
| 1777316731 | 16.11° C | 74% | 1014.4 hPa | - | - | - | - |
* Rain since midnight (hover to see other rain measurements)
** Current wind speed in m/s (hover to see current wind gust speed)